Time;durP1;ratioP1;P1;durP2;ratioP2;P2;SDS_P1;SDS_P2;PMS_P1;PMS_P2;Temp;Humidity;BMP_temperature;BMP_pressure;BME280_temperature;BME280_humidity;BME280_pressure;Samples;Min_cycle;Max_cycle;Signal;HPM_P1;HPM_P2
2021/12/23 00:00:10;;;;;;;23.03;18.27;;;-2.00;99.90;;;;;;5014113;28;20448;-48
2021/12/23 00:02:38;;;;;;;27.80;19.00;;;-2.00;99.90;;;;;;5013979;28;20451;-48
2021/12/23 00:05:05;;;;;;;23.50;17.37;;;-2.00;99.90;;;;;;5013341;28;20489;-49
2021/12/23 00:07:32;;;;;;;24.80;18.00;;;-2.00;99.90;;;;;;5020120;28;21032;-49
2021/12/23 00:10:05;;;;;;;25.47;17.53;;;-1.90;99.90;;;;;;5014445;28;20479;-49
2021/12/23 00:12:33;;;;;;;26.10;19.20;;;-1.90;99.90;;;;;;5013890;28;20451;-49
2021/12/23 00:15:02;;;;;;;23.20;18.20;;;-1.90;99.90;;;;;;5014219;28;20487;-49
2021/12/23 00:17:53;;;;;;;24.43;18.50;;;-1.90;99.90;;;;;;5016843;28;20479;-49
2021/12/23 00:25:44;;;;;;;29.67;16.70;;;-2.00;99.90;;;;;;5012728;28;20638;-52
2021/12/23 00:28:10;;;;;;;21.23;17.37;;;-2.00;99.90;;;;;;5014056;28;20509;-52
2021/12/23 00:30:38;;;;;;;23.30;17.00;;;-2.10;99.90;;;;;;5012612;28;20478;-52
2021/12/23 00:33:05;;;;;;;22.07;16.80;;;-2.10;99.90;;;;;;5007069;28;20499;-52
2021/12/23 00:35:31;;;;;;;22.87;17.30;;;-2.10;99.90;;;;;;5019031;28;20489;-52
2021/12/23 00:38:02;;;;;;;18.70;16.73;;;-2.20;99.90;;;;;;5013176;28;20460;-53
2021/12/23 00:40:29;;;;;;;21.87;17.03;;;-2.20;99.90;;;;;;5013969;28;20491;-52
2021/12/23 00:42:55;;;;;;;24.03;17.30;;;-2.20;99.90;;;;;;5013659;28;20487;-52
2021/12/23 00:45:22;;;;;;;22.73;17.57;;;-2.30;99.90;;;;;;5012842;28;20510;-52
2021/12/23 00:47:50;;;;;;;22.73;17.50;;;-2.30;99.90;;;;;;5012789;28;21262;-52
2021/12/23 00:50:17;;;;;;;19.07;16.77;;;-2.40;99.90;;;;;;5013368;28;20487;-52
2021/12/23 00:52:45;;;;;;;20.47;16.70;;;-2.40;99.90;;;;;;5013653;28;20502;-52
2021/12/23 00:55:12;;;;;;;23.63;17.63;;;-2.30;99.90;;;;;;5013580;28;20443;-52
2021/12/23 00:57:40;;;;;;;19.30;16.57;;;-2.30;99.90;;;;;;5011469;28;20538;-52
2021/12/23 01:00:10;;;;;;;23.33;18.20;;;-2.30;99.90;;;;;;5013080;28;20957;-52
2021/12/23 01:02:37;;;;;;;21.30;17.60;;;-2.30;99.90;;;;;;5013289;28;20483;-52
2021/12/23 01:05:05;;;;;;;22.10;16.50;;;-2.20;99.90;;;;;;5013379;28;20506;-52
2021/12/23 01:07:32;;;;;;;24.60;18.23;;;-2.20;99.90;;;;;;5012672;28;20495;-52
2021/12/23 01:09:58;;;;;;;22.73;17.40;;;-2.10;99.90;;;;;;5013265;28;20495;-51
2021/12/23 01:12:31;;;;;;;19.60;16.50;;;-2.00;99.90;;;;;;5011677;28;20467;-52
2021/12/23 01:15:09;;;;;;;21.00;17.83;;;-2.00;99.90;;;;;;5013735;28;20535;-52
2021/12/23 01:17:53;;;;;;;21.97;17.80;;;-2.00;99.90;;;;;;5012814;28;20566;-51
2021/12/23 01:20:25;;;;;;;20.70;16.87;;;-2.10;99.90;;;;;;5012702;28;20451;-52
2021/12/23 01:22:53;;;;;;;24.60;17.97;;;-2.00;99.90;;;;;;5013114;28;20552;-53
2021/12/23 01:25:19;;;;;;;19.00;16.73;;;-2.00;99.90;;;;;;5015049;28;20514;-52
2021/12/23 01:27:46;;;;;;;23.57;17.67;;;-1.90;99.90;;;;;;5020799;28;20504;-52
2021/12/23 01:30:13;;;;;;;18.77;16.40;;;-1.90;99.90;;;;;;5012461;28;20841;-52
2021/12/23 01:32:41;;;;;;;18.43;15.63;;;-1.80;99.90;;;;;;5012720;28;20510;-52
2021/12/23 01:35:08;;;;;;;20.03;17.10;;;-1.80;99.90;;;;;;5012967;28;20444;-52
2021/12/23 01:37:36;;;;;;;22.37;16.23;;;-1.80;99.90;;;;;;5011223;28;20511;-52
2021/12/23 01:40:03;;;;;;;19.20;16.60;;;-1.80;99.90;;;;;;5005700;28;20464;-52
2021/12/23 01:42:30;;;;;;;19.27;16.70;;;-1.80;99.90;;;;;;5012088;28;20483;-56
2021/12/23 01:44:56;;;;;;;19.43;16.30;;;-1.80;99.90;;;;;;5010181;28;20516;-55
2021/12/23 01:47:23;;;;;;;17.33;15.47;;;-1.70;99.90;;;;;;5016429;28;20561;-56
2021/12/23 01:49:51;;;;;;;19.50;15.57;;;-1.70;99.90;;;;;;5011874;28;20543;-56
2021/12/23 01:52:18;;;;;;;22.00;15.17;;;-1.80;99.90;;;;;;5012562;28;20475;-56
2021/12/23 01:54:47;;;;;;;16.70;14.77;;;-1.70;99.90;;;;;;5012138;28;20452;-55
2021/12/23 01:57:14;;;;;;;17.70;15.10;;;-1.70;99.90;;;;;;5017054;28;21542;-54
2021/12/23 01:59:41;;;;;;;20.07;16.10;;;-1.70;99.90;;;;;;5012112;28;20452;-55
2021/12/23 02:02:07;;;;;;;20.00;15.73;;;-1.70;99.90;;;;;;5012003;28;20486;-55
2021/12/23 02:04:34;;;;;;;17.03;15.20;;;-1.70;99.90;;;;;;5012216;28;20557;-55
2021/12/23 02:07:02;;;;;;;25.10;15.40;;;-1.70;76.60;;;;;;5017417;28;20468;-54
2021/12/23 02:09:28;;;;;;;22.40;17.57;;;-1.70;77.50;;;;;;5010456;28;20483;-54
2021/12/23 02:11:56;;;;;;;22.00;17.10;;;-1.80;23.00;;;;;;5012037;28;20865;-54
2021/12/23 02:14:23;;;;;;;20.00;16.50;;;-1.80;99.90;;;;;;5018099;28;20856;-55
2021/12/23 02:16:50;;;;;;;23.00;16.93;;;-1.90;95.80;;;;;;5012121;28;20526;-56
2021/12/23 02:19:18;;;;;;;19.60;16.27;;;-1.90;99.90;;;;;;5011153;28;20496;-55
2021/12/23 02:21:47;;;;;;;24.07;16.80;;;-1.90;99.90;;;;;;5010392;28;20514;-55
2021/12/23 02:24:14;;;;;;;20.33;16.57;;;-1.90;99.90;;;;;;5012215;28;20484;-55
2021/12/23 02:26:42;;;;;;;20.00;17.20;;;-1.90;99.90;;;;;;5004202;28;20488;-55
2021/12/23 02:29:09;;;;;;;20.20;15.43;;;-1.80;99.90;;;;;;5011261;28;21257;-55
2021/12/23 02:31:36;;;;;;;20.90;17.13;;;-1.90;99.90;;;;;;5011598;28;20475;-54
2021/12/23 02:34:03;;;;;;;21.30;15.83;;;-1.90;99.90;;;;;;5011198;28;20522;-55
2021/12/23 02:36:30;;;;;;;20.47;16.30;;;-1.90;99.90;;;;;;5008044;28;20491;-54
2021/12/23 02:38:58;;;;;;;22.53;17.63;;;-1.90;99.90;;;;;;5011557;28;20491;-55
2021/12/23 02:41:25;;;;;;;21.00;16.90;;;-1.90;99.90;;;;;;5011568;28;20900;-53
2021/12/23 02:43:52;;;;;;;21.60;17.10;;;-1.90;99.90;;;;;;5012142;28;20451;-55
2021/12/23 02:46:19;;;;;;;22.07;16.87;;;-1.90;99.90;;;;;;5010501;28;20487;-55
2021/12/23 02:48:47;;;;;;;21.67;15.87;;;-2.00;99.90;;;;;;5010356;28;20566;-55
2021/12/23 02:51:15;;;;;;;21.60;18.07;;;-2.00;99.90;;;;;;5015520;28;20482;-54
2021/12/23 02:53:42;;;;;;;20.63;15.83;;;-2.00;99.90;;;;;;5014937;28;20925;-55
2021/12/23 02:56:14;;;;;;;19.50;15.53;;;-2.00;99.90;;;;;;5020793;28;21011;-54
2021/12/23 02:58:41;;;;;;;17.90;15.73;;;-2.00;99.90;;;;;;5013397;28;20964;-56
2021/12/23 03:01:09;;;;;;;29.23;17.33;;;-2.00;99.90;;;;;;5015673;28;20937;-55
2021/12/23 03:03:36;;;;;;;19.17;15.97;;;-2.00;99.90;;;;;;5015715;28;20519;-55
2021/12/23 03:06:03;;;;;;;18.60;16.00;;;-2.00;99.90;;;;;;5014881;28;20522;-54
2021/12/23 03:08:35;;;;;;;21.30;16.73;;;-2.00;99.90;;;;;;5015295;28;20530;-56
2021/12/23 03:11:03;;;;;;;20.60;14.93;;;-1.90;99.90;;;;;;5006021;28;20924;-55
2021/12/23 03:13:31;;;;;;;20.70;15.97;;;-2.00;99.90;;;;;;5015676;28;20475;-56
2021/12/23 03:15:57;;;;;;;18.73;15.77;;;-2.00;96.80;;;;;;5015561;28;20506;-56
2021/12/23 03:18:25;;;;;;;24.43;15.83;;;-2.00;96.90;;;;;;5015132;28;20479;-56
2021/12/23 03:20:51;;;;;;;19.70;16.70;;;-2.00;20.60;;;;;;5015190;28;20479;-55
2021/12/23 03:23:18;;;;;;;20.80;15.83;;;-2.00;99.90;;;;;;5014069;28;21225;-55
2021/12/23 03:25:45;;;;;;;19.43;16.07;;;-2.10;23.60;;;;;;5015163;28;20522;-54
2021/12/23 03:28:12;;;;;;;16.93;14.53;;;-2.00;99.90;;;;;;5014883;28;20487;-55
2021/12/23 03:30:40;;;;;;;21.53;15.60;;;-2.00;99.90;;;;;;5015234;28;20475;-54
2021/12/23 03:33:06;;;;;;;19.60;15.27;;;-2.00;97.80;;;;;;5015087;28;22113;-54
2021/12/23 03:35:33;;;;;;;22.60;16.87;;;-1.90;79.70;;;;;;5015395;28;20475;-54
2021/12/23 03:38:00;;;;;;;22.70;16.37;;;-2.00;99.90;;;;;;5013483;28;20514;-54
2021/12/23 03:40:27;;;;;;;20.17;15.37;;;-2.00;99.90;;;;;;5013832;28;20521;-55
2021/12/23 03:42:53;;;;;;;20.53;16.03;;;-2.00;99.90;;;;;;5014851;28;21004;-55
2021/12/23 03:45:20;;;;;;;19.17;16.50;;;-2.00;99.90;;;;;;5012766;28;20511;-55
2021/12/23 03:47:50;;;;;;;21.77;15.83;;;-2.00;99.90;;;;;;5014463;28;20507;-55
2021/12/23 03:50:17;;;;;;;17.60;15.17;;;-2.00;99.90;;;;;;5014469;28;20478;-55
2021/12/23 03:52:45;;;;;;;18.87;16.20;;;-2.10;99.90;;;;;;5014407;28;20458;-54
2021/12/23 03:55:13;;;;;;;22.30;17.27;;;-2.10;99.90;;;;;;5015014;28;20531;-55
2021/12/23 03:57:39;;;;;;;19.57;16.70;;;-2.00;99.90;;;;;;5014508;28;20539;-56
2021/12/23 04:00:10;;;;;;;19.83;15.87;;;-2.00;99.90;;;;;;5013164;28;20932;-54
2021/12/23 04:02:37;;;;;;;19.90;16.10;;;-2.00;22.80;;;;;;5014351;28;20476;-55
2021/12/23 04:05:08;;;;;;;20.37;15.77;;;-2.10;77.20;;;;;;5014430;28;20480;-55
2021/12/23 04:07:34;;;;;;;20.03;16.57;;;-2.10;99.90;;;;;;5014213;28;20507;-54
2021/12/23 04:10:01;;;;;;;24.03;17.90;;;-2.20;99.90;;;;;;5014344;28;20533;-55
2021/12/23 04:12:28;;;;;;;17.77;15.87;;;-2.20;99.90;;;;;;5013368;28;21124;-55
2021/12/23 04:14:54;;;;;;;22.10;17.80;;;-2.20;99.90;;;;;;5014648;28;20479;-56
2021/12/23 04:17:21;;;;;;;22.57;17.03;;;-2.30;99.90;;;;;;5014110;28;20579;-55
2021/12/23 04:19:49;;;;;;;21.20;16.80;;;-2.20;99.90;;;;;;5013579;28;20483;-56
2021/12/23 04:22:17;;;;;;;21.40;17.50;;;-2.30;99.90;;;;;;5012602;28;20495;-54
2021/12/23 04:24:44;;;;;;;21.17;15.90;;;-2.30;99.90;;;;;;5011591;28;20487;-54
2021/12/23 04:27:10;;;;;;;18.37;16.13;;;-2.20;99.90;;;;;;5014146;28;20510;-55
2021/12/23 04:29:37;;;;;;;22.30;17.07;;;-2.20;99.90;;;;;;5013513;28;20887;-54
2021/12/23 04:32:05;;;;;;;18.47;15.00;;;-2.20;99.90;;;;;;5013281;28;20496;-54
2021/12/23 04:34:31;;;;;;;20.83;16.07;;;-2.20;99.90;;;;;;5015742;28;20483;-54
2021/12/23 04:36:58;;;;;;;21.77;17.17;;;-2.20;99.90;;;;;;5011863;28;20558;-55
2021/12/23 04:39:26;;;;;;;18.70;16.70;;;-2.10;99.90;;;;;;5011768;28;20460;-56
2021/12/23 04:41:52;;;;;;;19.70;16.50;;;-2.00;99.90;;;;;;5018260;28;20545;-55
2021/12/23 04:44:19;;;;;;;22.80;16.30;;;-2.00;99.90;;;;;;5020949;28;20480;-54
2021/12/23 04:46:45;;;;;;;20.37;15.90;;;-2.00;99.90;;;;;;5011108;28;20597;-48
2021/12/23 04:49:12;;;;;;;20.37;16.23;;;-2.00;92.40;;;;;;5015414;28;20482;-48
2021/12/23 04:51:38;;;;;;;34.97;16.33;;;-2.00;99.90;;;;;;5015860;28;20485;-50
2021/12/23 04:54:05;;;;;;;19.70;16.67;;;-2.00;23.70;;;;;;5017806;28;20518;-49
2021/12/23 04:56:33;;;;;;;21.60;16.60;;;-2.00;99.90;;;;;;5014303;28;20514;-48
2021/12/23 04:58:59;;;;;;;26.23;17.87;;;-2.00;99.90;;;;;;5015287;28;20518;-49
2021/12/23 05:01:28;;;;;;;18.90;16.73;;;-2.00;99.90;;;;;;5008802;28;20555;-49
2021/12/23 05:03:55;;;;;;;20.73;17.00;;;-2.10;26.10;;;;;;5013059;28;20458;-49
2021/12/23 05:06:22;;;;;;;20.27;17.10;;;-2.00;99.90;;;;;;5017415;28;20587;-48
2021/12/23 05:08:49;;;;;;;25.37;16.97;;;-2.00;83.10;;;;;;5010293;28;20555;-48
2021/12/23 05:11:17;;;;;;;22.80;16.77;;;-2.00;99.90;;;;;;5012271;28;20654;-48
2021/12/23 05:13:47;;;;;;;19.17;16.77;;;-2.00;99.90;;;;;;5012953;28;20474;-48
2021/12/23 05:16:14;;;;;;;21.47;17.43;;;-1.90;99.90;;;;;;5013223;28;20562;-49
2021/12/23 05:18:40;;;;;;;22.10;17.47;;;-1.90;99.90;;;;;;5012059;28;20992;-48
2021/12/23 05:21:07;;;;;;;25.90;18.70;;;-2.00;76.90;;;;;;5009759;28;20546;-52
2021/12/23 05:23:34;;;;;;;19.83;17.10;;;-2.00;99.90;;;;;;5011471;28;20502;-52
2021/12/23 05:26:00;;;;;;;20.80;17.23;;;-1.90;96.20;;;;;;5012263;28;20534;-52
2021/12/23 05:28:27;;;;;;;20.47;17.27;;;-1.90;72.70;;;;;;5014271;28;21031;-52
2021/12/23 05:30:55;;;;;;;23.03;18.40;;;-1.90;99.90;;;;;;5015365;28;20977;-52
2021/12/23 05:33:21;;;;;;;22.13;18.40;;;-1.90;30.10;;;;;;5011372;28;20574;-52
2021/12/23 05:35:48;;;;;;;21.47;17.77;;;-1.90;24.50;;;;;;5016959;28;20514;-52
2021/12/23 05:38:14;;;;;;;22.63;18.03;;;-1.90;30.60;;;;;;5010062;28;20561;-52
2021/12/23 05:40:41;;;;;;;21.97;18.63;;;-2.00;28.10;;;;;;5006219;28;20558;-52
2021/12/23 05:43:08;;;;;;;20.83;17.60;;;-1.90;21.50;;;;;;5008237;28;20464;-52
2021/12/23 05:45:34;;;;;;;27.57;18.93;;;-2.00;30.80;;;;;;5013656;28;20555;-52
2021/12/23 05:48:04;;;;;;;23.50;18.77;;;-1.90;99.90;;;;;;5008459;28;20570;-51
2021/12/23 05:50:30;;;;;;;20.37;18.20;;;-1.90;99.90;;;;;;5010178;28;20550;-52
2021/12/23 05:52:57;;;;;;;26.93;19.43;;;-1.80;22.50;;;;;;5012512;28;20538;-53
2021/12/23 05:55:24;;;;;;;23.97;18.70;;;-1.80;30.90;;;;;;5019118;28;20554;-52
2021/12/23 05:57:51;;;;;;;24.53;18.53;;;-1.80;27.20;;;;;;5008982;28;20575;-52
2021/12/23 06:00:20;;;;;;;23.07;19.30;;;-1.80;38.70;;;;;;5010507;28;20494;-52
2021/12/23 06:02:47;;;;;;;26.63;19.97;;;-1.70;32.30;;;;;;5012100;28;20527;-52
2021/12/23 06:05:15;;;;;;;23.90;19.93;;;-1.70;29.90;;;;;;5016094;28;21469;-53
2021/12/23 06:07:42;;;;;;;25.70;20.93;;;-1.70;39.00;;;;;;5000684;28;20494;-52
2021/12/23 06:10:10;;;;;;;24.53;19.67;;;-1.80;52.50;;;;;;5009064;28;20555;-52
2021/12/23 06:12:37;;;;;;;24.53;19.70;;;-1.70;30.80;;;;;;5008718;28;20467;-52
2021/12/23 06:15:04;;;;;;;27.60;20.47;;;-1.70;43.60;;;;;;5012237;28;20483;-52
2021/12/23 06:17:31;;;;;;;26.17;19.57;;;-1.70;33.50;;;;;;5009630;28;20582;-52
2021/12/23 06:19:57;;;;;;;25.07;20.30;;;-1.60;26.90;;;;;;5009297;28;21024;-52
2021/12/23 06:22:26;;;;;;;29.73;19.90;;;-1.60;36.90;;;;;;5009181;28;20582;-53
2021/12/23 06:24:52;;;;;;;23.90;19.20;;;-1.60;51.40;;;;;;5004193;28;20470;-53
2021/12/23 06:27:20;;;;;;;25.60;19.50;;;-1.50;42.60;;;;;;5009175;28;20522;-52
2021/12/23 06:29:47;;;;;;;23.17;19.07;;;-1.50;42.10;;;;;;5009024;28;21044;-50
2021/12/23 06:32:14;;;;;;;26.33;20.13;;;-1.50;49.10;;;;;;5008158;28;20482;-49
2021/12/23 06:34:41;;;;;;;26.37;20.00;;;-1.50;48.90;;;;;;5013155;28;20912;-49
2021/12/23 06:37:07;;;;;;;24.90;20.93;;;-1.40;58.80;;;;;;5011592;28;20492;-49
2021/12/23 06:39:38;;;;;;;23.90;20.07;;;-1.40;55.10;;;;;;5009024;28;20565;-50
2021/12/23 06:42:05;;;;;;;23.13;18.77;;;-1.40;56.90;;;;;;5010986;28;20469;-51
2021/12/23 06:44:32;;;;;;;24.73;20.70;;;-1.40;64.90;;;;;;5011875;28;20587;-51
2021/12/23 06:46:58;;;;;;;25.30;19.20;;;-1.50;55.70;;;;;;5009427;28;21192;-54
2021/12/23 06:49:26;;;;;;;28.60;20.40;;;-1.40;54.50;;;;;;5012570;28;20499;-48
2021/12/23 06:51:53;;;;;;;214.57;166.97;;;-1.40;61.00;;;;;;5009918;28;20495;-55
2021/12/23 06:54:20;;;;;;;242.40;184.67;;;-1.30;60.60;;;;;;5010212;28;20965;-54
2021/12/23 06:56:48;;;;;;;195.60;157.07;;;-1.30;68.20;;;;;;5009671;28;20514;-54
2021/12/23 06:59:16;;;;;;;63.53;56.97;;;-1.30;64.50;;;;;;5008945;28;20498;-56
2021/12/23 07:01:46;;;;;;;62.40;45.23;;;-1.30;69.50;;;;;;5011740;28;20813;-54
2021/12/23 07:04:15;;;;;;;50.80;41.80;;;-1.30;76.20;;;;;;5011736;28;20992;-55
2021/12/23 07:06:47;;;;;;;53.10;47.33;;;-1.30;71.80;;;;;;5009043;28;20491;-56
2021/12/23 07:09:14;;;;;;;24.00;20.60;;;-1.30;60.00;;;;;;5006196;28;20463;-55
2021/12/23 07:11:41;;;;;;;21.00;18.63;;;-1.20;74.60;;;;;;5013569;28;20539;-54
2021/12/23 07:14:09;;;;;;;27.60;19.67;;;-1.20;75.10;;;;;;5009266;28;20559;-55
2021/12/23 07:16:38;;;;;;;25.53;20.90;;;-1.20;75.40;;;;;;5011797;28;21023;-55
2021/12/23 07:19:04;;;;;;;24.40;19.93;;;-1.20;75.10;;;;;;5008642;28;20463;-54
2021/12/23 07:21:31;;;;;;;29.13;20.50;;;-1.20;79.00;;;;;;5009211;28;20555;-55
2021/12/23 07:23:57;;;;;;;25.60;21.00;;;-1.10;76.20;;;;;;5008338;28;20547;-55
2021/12/23 07:26:24;;;;;;;31.00;20.70;;;-1.10;88.10;;;;;;5012173;28;20571;-54
2021/12/23 07:28:50;;;;;;;29.43;21.53;;;-1.10;92.10;;;;;;5008767;28;20559;-56
2021/12/23 07:31:18;;;;;;;28.53;20.83;;;-1.10;99.90;;;;;;5012044;28;20578;-56
2021/12/23 07:33:45;;;;;;;26.13;19.00;;;-1.10;99.90;;;;;;5013170;28;21000;-54
2021/12/23 07:36:11;;;;;;;22.77;18.90;;;-1.00;99.90;;;;;;5022517;28;21051;-54
2021/12/23 07:38:38;;;;;;;23.97;18.37;;;-1.00;99.90;;;;;;5024842;28;20550;-55
2021/12/23 07:41:05;;;;;;;25.57;19.33;;;-0.90;99.90;;;;;;5013541;28;21004;-55
2021/12/23 07:43:56;;;;;;;29.27;18.40;;;-0.90;99.90;;;;;;5011432;28;20467;-55
2021/12/23 07:46:24;;;;;;;26.13;19.03;;;-0.90;99.90;;;;;;5011919;28;20596;-55
2021/12/23 07:48:51;;;;;;;26.30;19.10;;;-0.90;99.90;;;;;;5010530;28;20506;-56
2021/12/23 07:51:18;;;;;;;36.50;17.67;;;-0.90;99.90;;;;;;5011841;28;20466;-55
2021/12/23 07:53:45;;;;;;;26.50;19.23;;;-0.80;99.90;;;;;;5016424;28;20509;-57
2021/12/23 07:56:12;;;;;;;19.77;16.90;;;-0.80;99.90;;;;;;5014752;28;20578;-52
2021/12/23 07:58:39;;;;;;;23.50;17.67;;;-0.80;99.90;;;;;;5010091;28;20985;-52
2021/12/23 08:01:05;;;;;;;25.02;18.67;;;-0.80;99.90;;;;;;5017078;28;20553;-53
2021/12/23 08:03:33;;;;;;;20.10;17.97;;;-0.80;99.90;;;;;;5014873;28;20300;-48
2021/12/23 08:06:00;;;;;;;23.77;18.90;;;-0.70;99.90;;;;;;5014614;28;20476;-48
2021/12/23 08:08:26;;;;;;;21.23;17.70;;;-0.70;99.90;;;;;;5013924;28;20575;-51
2021/12/23 08:10:54;;;;;;;27.23;19.70;;;-0.70;99.90;;;;;;5013965;28;20471;-51
2021/12/23 08:13:21;;;;;;;23.53;17.30;;;-0.80;99.90;;;;;;5013694;28;20456;-51
2021/12/23 08:15:47;;;;;;;21.37;18.70;;;-0.70;99.90;;;;;;5013630;28;21068;-55
2021/12/23 08:18:14;;;;;;;21.23;17.73;;;-0.70;99.90;;;;;;5012527;28;20563;-55
2021/12/23 08:20:42;;;;;;;30.13;19.00;;;-0.60;99.90;;;;;;5014244;28;20969;-55
2021/12/23 08:23:08;;;;;;;26.83;19.10;;;-0.60;99.90;;;;;;5006668;28;21035;-54
2021/12/23 08:25:37;;;;;;;26.20;18.57;;;-0.60;99.90;;;;;;5011488;28;20595;-55
2021/12/23 08:28:04;;;;;;;32.97;19.30;;;-0.60;99.90;;;;;;5001356;28;20578;-52
2021/12/23 08:30:32;;;;;;;25.40;18.00;;;-0.60;99.90;;;;;;5010204;28;20526;-55
2021/12/23 08:32:59;;;;;;;29.00;20.10;;;-0.50;99.90;;;;;;5011061;28;20459;-51
2021/12/23 08:35:25;;;;;;;24.97;17.43;;;-0.50;99.90;;;;;;5004619;28;20536;-52
2021/12/23 08:37:53;;;;;;;31.90;19.90;;;-0.50;99.90;;;;;;5008571;28;20503;-51
2021/12/23 08:40:22;;;;;;;25.17;17.50;;;-0.60;99.90;;;;;;5009381;28;20486;-51
2021/12/23 08:42:50;;;;;;;22.97;18.43;;;-0.50;99.90;;;;;;5011176;28;20475;-56
2021/12/23 08:45:17;;;;;;;23.20;17.00;;;-0.50;99.90;;;;;;5005981;28;20539;-55
2021/12/23 08:47:44;;;;;;;24.20;19.00;;;-0.50;99.90;;;;;;4997745;28;20585;-56
2021/12/23 08:50:12;;;;;;;28.87;20.03;;;-0.50;99.90;;;;;;5000903;28;20533;-52
2021/12/23 08:52:39;;;;;;;30.80;22.30;;;-0.40;99.90;;;;;;5005111;28;20534;-52
2021/12/23 08:55:09;;;;;;;35.07;23.80;;;-0.40;99.90;;;;;;5002904;28;20466;-52
2021/12/23 08:57:36;;;;;;;27.53;20.90;;;-0.40;99.90;;;;;;5004946;28;20575;-52
2021/12/23 09:00:06;;;;;;;25.70;18.50;;;-0.40;99.90;;;;;;5003413;28;20996;-52
2021/12/23 09:02:33;;;;;;;41.40;27.73;;;-0.50;99.90;;;;;;5004298;28;20498;-53
2021/12/23 09:05:00;;;;;;;24.60;18.87;;;-0.40;99.90;;;;;;5006510;28;20466;-51
2021/12/23 09:07:27;;;;;;;24.27;19.70;;;-0.40;99.90;;;;;;5011381;28;20479;-51
2021/12/23 09:09:53;;;;;;;25.00;18.90;;;-0.40;99.90;;;;;;5010195;28;20909;-51
2021/12/23 09:12:21;;;;;;;25.70;17.73;;;-0.30;99.90;;;;;;5004976;28;20504;-51
2021/12/23 09:14:48;;;;;;;27.73;19.57;;;-0.30;99.90;;;;;;5005504;28;20918;-51
2021/12/23 09:17:16;;;;;;;29.63;18.87;;;-0.20;99.90;;;;;;5004677;28;20499;-51
2021/12/23 09:19:43;;;;;;;23.00;17.63;;;-0.20;99.90;;;;;;5004675;28;20543;-51
2021/12/23 09:22:10;;;;;;;21.07;18.40;;;-0.20;1.40;;;;;;5005480;28;20460;-52
2021/12/23 09:24:37;;;;;;;24.50;19.03;;;-0.20;99.90;;;;;;5005640;28;20459;-51
2021/12/23 09:27:16;;;;;;;25.10;17.83;;;-0.10;99.90;;;;;;5006304;28;20487;-52
2021/12/23 09:32:52;;;;;;;24.37;18.20;;;-0.10;99.90;;;;;;5012410;28;20423;-52
2021/12/23 09:35:20;;;;;;;22.53;18.30;;;0.00;99.90;;;;;;5008601;28;20459;-51
2021/12/23 09:37:47;;;;;;;23.17;18.57;;;0.00;99.90;;;;;;5007511;28;20547;-52
2021/12/23 09:40:15;;;;;;;23.60;16.80;;;0.10;99.90;;;;;;5009240;28;20903;-52
2021/12/23 09:42:43;;;;;;;23.53;18.37;;;0.10;99.90;;;;;;5009494;28;20618;-52
2021/12/23 09:45:14;;;;;;;27.07;17.03;;;0.10;99.90;;;;;;5009323;28;21035;-57
2021/12/23 09:47:41;;;;;;;22.90;18.73;;;0.10;99.90;;;;;;4994865;28;21977;-47
2021/12/23 09:50:12;;;;;;;21.10;17.67;;;0.10;99.90;;;;;;5002946;28;20538;-47
2021/12/23 09:52:43;;;;;;;23.93;18.00;;;0.10;99.90;;;;;;5001273;28;20463;-48
2021/12/23 09:55:11;;;;;;;21.50;17.83;;;0.20;99.90;;;;;;5001130;28;20472;-47
2021/12/23 09:57:38;;;;;;;30.70;18.73;;;0.20;99.90;;;;;;5001268;28;20571;-48
2021/12/23 10:00:09;;;;;;;24.93;19.43;;;0.10;99.90;;;;;;5000973;28;20455;-55
2021/12/23 10:02:40;;;;;;;22.30;17.30;;;0.20;99.90;;;;;;5001416;28;20533;-55
2021/12/23 10:05:09;;;;;;;23.20;17.80;;;0.30;99.90;;;;;;5000315;28;20464;-55
2021/12/23 10:07:35;;;;;;;26.20;19.90;;;0.30;99.90;;;;;;5001943;28;20566;-54
2021/12/23 10:10:08;;;;;;;24.27;17.60;;;0.30;99.90;;;;;;5000707;28;20935;-54
2021/12/23 10:32:14;;;;;;;19.87;15.67;;;0.50;99.90;;;;;;5006465;28;20486;-52
2021/12/23 10:37:26;;;;;;;20.93;17.80;;;0.50;99.90;;;;;;5008722;28;20569;-52
2021/12/23 10:40:11;;;;;;;20.47;16.80;;;0.50;99.90;;;;;;5008011;28;20506;-52
2021/12/23 10:42:38;;;;;;;23.23;16.53;;;0.60;99.90;;;;;;5010696;28;20460;-52
2021/12/23 10:45:08;;;;;;;22.37;16.40;;;0.60;99.90;;;;;;5001941;28;20642;-52
2021/12/23 10:47:42;;;;;;;21.63;15.23;;;0.60;99.90;;;;;;5019651;22;20549;-55
2021/12/23 10:50:16;;;;;;;19.40;15.83;;;0.70;99.90;;;;;;5009155;28;20470;-54
2021/12/23 10:52:52;;;;;;;23.93;16.93;;;0.70;99.90;;;;;;5003325;28;20974;-53
2021/12/23 10:58:14;;;;;;;21.33;16.43;;;0.60;99.90;;;;;;4991851;28;20530;-53
2021/12/23 11:00:45;;;;;;;21.73;16.53;;;0.50;99.90;;;;;;4986451;28;20456;-53
2021/12/23 11:03:17;;;;;;;28.60;17.67;;;0.60;99.90;;;;;;4985679;28;20471;-53
2021/12/23 11:05:57;;;;;;;23.70;17.80;;;0.70;99.90;;;;;;4989728;28;20555;-53
2021/12/23 11:08:31;;;;;;;22.90;17.07;;;0.70;99.90;;;;;;4985746;28;20483;-52
2021/12/23 11:11:22;;;;;;;24.53;16.70;;;0.70;99.90;;;;;;4987654;28;20469;-53
2021/12/23 11:28:12;;;;;;;24.30;17.27;;;0.80;99.90;;;;;;4987863;28;20523;-53
2021/12/23 11:31:57;;;;;;;25.10;17.27;;;0.80;99.90;;;;;;4993658;28;20483;-54
2021/12/23 11:37:04;;;;;;;20.87;16.47;;;0.70;99.90;;;;;;4955669;28;20487;-53
2021/12/23 11:39:33;;;;;;;21.10;17.20;;;0.80;99.90;;;;;;4987860;28;20495;-53
2021/12/23 11:42:05;;;;;;;23.40;18.43;;;0.70;99.90;;;;;;4988468;28;20475;-53
2021/12/23 11:44:33;;;;;;;21.07;16.83;;;0.80;99.90;;;;;;4990095;28;20464;-53
2021/12/23 11:47:07;;;;;;;21.20;15.90;;;0.90;99.90;;;;;;4990854;28;20596;-54
2021/12/23 11:49:37;;;;;;;22.37;17.20;;;0.90;99.90;;;;;;4982891;28;20488;-53
2021/12/23 11:52:05;;;;;;;21.10;16.60;;;1.00;99.90;;;;;;4977473;28;20595;-53
2021/12/23 11:54:35;;;;;;;19.13;16.20;;;0.90;99.90;;;;;;4985218;28;20468;-53
2021/12/23 11:57:05;;;;;;;21.13;17.23;;;1.10;99.90;;;;;;4981096;28;20572;-53
2021/12/23 11:59:35;;;;;;;23.77;16.13;;;1.00;99.90;;;;;;4985173;28;21121;-54
2021/12/23 12:02:11;;;;;;;18.03;15.20;;;1.10;99.90;;;;;;4982949;28;20570;-53
2021/12/23 12:04:38;;;;;;;22.30;16.57;;;1.10;99.90;;;;;;4984069;28;20958;-54
2021/12/23 12:07:14;;;;;;;22.43;17.60;;;1.20;99.90;;;;;;4989274;28;21076;-53
2021/12/23 12:09:57;;;;;;;18.53;14.57;;;1.10;99.90;;;;;;4989150;28;20456;-53
2021/12/23 12:12:24;;;;;;;31.93;16.20;;;1.10;99.90;;;;;;4985236;28;20887;-53
2021/12/23 12:14:55;;;;;;;24.27;17.60;;;1.10;99.90;;;;;;4983682;28;20472;-53
2021/12/23 12:17:38;;;;;;;17.40;14.57;;;1.10;99.90;;;;;;4991736;28;20483;-55
2021/12/23 12:20:14;;;;;;;18.63;14.67;;;1.10;99.90;;;;;;4989639;28;20976;-53
2021/12/23 12:22:48;;;;;;;20.40;14.60;;;1.00;99.90;;;;;;4989495;28;20457;-53
2021/12/23 12:25:47;;;;;;;19.73;15.53;;;1.10;99.90;;;;;;4985279;28;21028;-53
2021/12/23 12:28:17;;;;;;;18.40;14.80;;;1.10;99.90;;;;;;4982910;28;20574;-53
2021/12/23 12:30:49;;;;;;;20.20;16.20;;;1.20;99.90;;;;;;4984002;28;20919;-54
2021/12/23 12:33:35;;;;;;;22.57;14.40;;;1.20;99.90;;;;;;4986660;28;20448;-54
2021/12/23 12:36:08;;;;;;;21.47;14.20;;;1.10;99.90;;;;;;4985661;28;21042;-53
2021/12/23 12:38:37;;;;;;;19.07;14.03;;;1.10;99.90;;;;;;4989301;28;20464;-54
2021/12/23 12:41:08;;;;;;;17.83;14.03;;;1.20;99.90;;;;;;4991554;28;20484;-53
2021/12/23 12:43:51;;;;;;;15.30;12.97;;;1.10;99.90;;;;;;4989180;28;21037;-54
2021/12/23 12:47:02;;;;;;;17.70;13.40;;;1.10;99.90;;;;;;4985968;28;20551;-54
2021/12/23 12:49:33;;;;;;;17.17;14.03;;;1.00;99.90;;;;;;4989497;28;20586;-54
2021/12/23 12:52:19;;;;;;;18.13;13.53;;;1.10;99.90;;;;;;4992680;28;20511;-53
2021/12/23 12:54:52;;;;;;;19.07;14.17;;;1.00;99.90;;;;;;4994418;28;20880;-54
2021/12/23 12:57:24;;;;;;;18.77;14.93;;;1.10;99.90;;;;;;4996679;28;21032;-53
2021/12/23 12:59:51;;;;;;;18.47;14.20;;;1.10;99.90;;;;;;4991114;28;20547;-53
2021/12/23 13:02:27;;;;;;;15.10;13.50;;;1.10;99.90;;;;;;4994632;28;20535;-53
2021/12/23 13:04:58;;;;;;;21.50;13.87;;;1.10;99.90;;;;;;4991597;28;20480;-54
2021/12/23 13:07:28;;;;;;;19.27;14.43;;;1.20;99.90;;;;;;4991884;28;20918;-53
2021/12/23 13:10:01;;;;;;;18.50;13.80;;;1.20;99.90;;;;;;4987515;28;20484;-54
2021/12/23 13:12:35;;;;;;;17.20;14.50;;;1.10;99.90;;;;;;4987869;28;20469;-53
2021/12/23 13:15:17;;;;;;;18.97;13.80;;;1.10;99.90;;;;;;4983249;28;20588;-55
2021/12/23 13:17:47;;;;;;;19.40;13.13;;;1.10;99.90;;;;;;4983147;28;21013;-55
2021/12/23 13:20:14;;;;;;;17.70;13.70;;;1.10;99.90;;;;;;4981845;28;20556;-55
2021/12/23 13:22:43;;;;;;;19.53;15.10;;;1.10;99.90;;;;;;4981358;28;20468;-54
2021/12/23 13:25:10;;;;;;;16.13;13.70;;;1.10;99.90;;;;;;4979253;28;20488;-54
2021/12/23 13:27:40;;;;;;;17.37;14.37;;;1.10;99.90;;;;;;4987060;28;21059;-53